sensor_id;sensor_type;location;lat;lon;timestamp;temperature;humidity
27188;DHT22;14708;50.872;5.306;2023-05-10T00:01:40;22.00;72.30
27188;DHT22;14708;50.872;5.306;2023-05-10T00:04:06;21.90;72.10
27188;DHT22;14708;50.872;5.306;2023-05-10T00:06:32;21.90;72.20
27188;DHT22;14708;50.872;5.306;2023-05-10T00:08:57;21.90;72.10
27188;DHT22;14708;50.872;5.306;2023-05-10T00:11:23;21.90;72.20
27188;DHT22;14708;50.872;5.306;2023-05-10T00:13:49;21.90;72.30
27188;DHT22;14708;50.872;5.306;2023-05-10T00:16:15;21.90;72.30
27188;DHT22;14708;50.872;5.306;2023-05-10T00:18:41;21.90;72.40
27188;DHT22;14708;50.872;5.306;2023-05-10T00:21:06;21.90;72.30
27188;DHT22;14708;50.872;5.306;2023-05-10T00:23:32;21.90;72.30
27188;DHT22;14708;50.872;5.306;2023-05-10T00:25:58;21.90;72.10
27188;DHT22;14708;50.872;5.306;2023-05-10T00:28:23;21.80;72.00
27188;DHT22;14708;50.872;5.306;2023-05-10T00:30:49;21.90;72.20
27188;DHT22;14708;50.872;5.306;2023-05-10T00:33:15;21.80;72.10
27188;DHT22;14708;50.872;5.306;2023-05-10T00:35:40;21.90;72.20
27188;DHT22;14708;50.872;5.306;2023-05-10T00:38:06;21.90;72.30
27188;DHT22;14708;50.872;5.306;2023-05-10T00:40:32;21.80;72.20
27188;DHT22;14708;50.872;5.306;2023-05-10T00:42:58;21.80;72.30
27188;DHT22;14708;50.872;5.306;2023-05-10T00:45:25;21.80;72.20
27188;DHT22;14708;50.872;5.306;2023-05-10T00:47:52;21.80;72.30
27188;DHT22;14708;50.872;5.306;2023-05-10T00:50:23;21.80;72.20
27188;DHT22;14708;50.872;5.306;2023-05-10T00:52:49;21.80;72.30
27188;DHT22;14708;50.872;5.306;2023-05-10T00:55:15;21.80;72.30
27188;DHT22;14708;50.872;5.306;2023-05-10T00:57:42;21.80;72.30
27188;DHT22;14708;50.872;5.306;2023-05-10T01:00:08;21.80;72.00
27188;DHT22;14708;50.872;5.306;2023-05-10T01:02:35;21.80;72.20
27188;DHT22;14708;50.872;5.306;2023-05-10T01:05:02;21.70;72.20
27188;DHT22;14708;50.872;5.306;2023-05-10T01:07:29;21.70;72.20
27188;DHT22;14708;50.872;5.306;2023-05-10T01:09:55;21.80;72.20
27188;DHT22;14708;50.872;5.306;2023-05-10T01:12:21;21.80;72.30
27188;DHT22;14708;50.872;5.306;2023-05-10T01:14:47;21.70;72.20
27188;DHT22;14708;50.872;5.306;2023-05-10T01:17:13;21.70;72.10
27188;DHT22;14708;50.872;5.306;2023-05-10T01:19:40;21.70;72.10
27188;DHT22;14708;50.872;5.306;2023-05-10T01:25:18;21.70;72.00
27188;DHT22;14708;50.872;5.306;2023-05-10T01:35:59;21.70;72.10
27188;DHT22;14708;50.872;5.306;2023-05-10T01:38:37;21.70;72.00
27188;DHT22;14708;50.872;5.306;2023-05-10T01:46:20;21.70;72.00
27188;DHT22;14708;50.872;5.306;2023-05-10T01:48:52;21.60;71.90
27188;DHT22;14708;50.872;5.306;2023-05-10T01:51:24;21.60;72.10
27188;DHT22;14708;50.872;5.306;2023-05-10T01:53:56;21.60;72.00
27188;DHT22;14708;50.872;5.306;2023-05-10T01:56:26;21.60;72.10
27188;DHT22;14708;50.872;5.306;2023-05-10T01:58:53;21.60;71.90
27188;DHT22;14708;50.872;5.306;2023-05-10T02:01:21;21.60;71.70
27188;DHT22;14708;50.872;5.306;2023-05-10T02:03:50;21.60;71.80
27188;DHT22;14708;50.872;5.306;2023-05-10T02:06:18;21.60;71.70
27188;DHT22;14708;50.872;5.306;2023-05-10T02:08:45;21.60;71.90
27188;DHT22;14708;50.872;5.306;2023-05-10T02:11:13;21.60;71.70
27188;DHT22;14708;50.872;5.306;2023-05-10T02:13:39;21.60;71.80
27188;DHT22;14708;50.872;5.306;2023-05-10T02:16:07;21.60;71.80
27188;DHT22;14708;50.872;5.306;2023-05-10T02:18:34;21.60;71.80
27188;DHT22;14708;50.872;5.306;2023-05-10T02:21:02;21.60;71.80
27188;DHT22;14708;50.872;5.306;2023-05-10T02:23:29;21.50;71.90
27188;DHT22;14708;50.872;5.306;2023-05-10T02:25:56;21.60;71.80
27188;DHT22;14708;50.872;5.306;2023-05-10T02:28:23;21.50;71.90
27188;DHT22;14708;50.872;5.306;2023-05-10T02:30:51;21.50;71.90
27188;DHT22;14708;50.872;5.306;2023-05-10T02:33:18;21.50;71.70
27188;DHT22;14708;50.872;5.306;2023-05-10T02:35:45;21.50;71.60
27188;DHT22;14708;50.872;5.306;2023-05-10T02:38:13;21.50;71.60
27188;DHT22;14708;50.872;5.306;2023-05-10T02:40:41;21.50;71.60
27188;DHT22;14708;50.872;5.306;2023-05-10T02:43:11;21.50;71.60
27188;DHT22;14708;50.872;5.306;2023-05-10T02:45:38;21.50;71.70
27188;DHT22;14708;50.872;5.306;2023-05-10T02:48:05;21.50;71.90
27188;DHT22;14708;50.872;5.306;2023-05-10T02:50:33;21.50;71.70
27188;DHT22;14708;50.872;5.306;2023-05-10T02:53:09;21.50;71.70
27188;DHT22;14708;50.872;5.306;2023-05-10T02:55:37;21.50;71.80
27188;DHT22;14708;50.872;5.306;2023-05-10T02:58:05;21.50;71.70
27188;DHT22;14708;50.872;5.306;2023-05-10T03:00:31;21.50;71.80
27188;DHT22;14708;50.872;5.306;2023-05-10T03:02:57;21.50;72.00
27188;DHT22;14708;50.872;5.306;2023-05-10T03:05:23;21.50;71.70
27188;DHT22;14708;50.872;5.306;2023-05-10T03:07:49;21.50;71.70
27188;DHT22;14708;50.872;5.306;2023-05-10T03:10:15;21.50;71.70
27188;DHT22;14708;50.872;5.306;2023-05-10T03:12:52;21.50;71.90
27188;DHT22;14708;50.872;5.306;2023-05-10T03:15:49;21.50;71.70
27188;DHT22;14708;50.872;5.306;2023-05-10T03:18:29;21.50;71.70
27188;DHT22;14708;50.872;5.306;2023-05-10T03:21:00;21.40;71.70
27188;DHT22;14708;50.872;5.306;2023-05-10T03:23:44;21.50;71.80
27188;DHT22;14708;50.872;5.306;2023-05-10T03:26:17;21.50;71.70
27188;DHT22;14708;50.872;5.306;2023-05-10T03:28:43;21.40;71.60
27188;DHT22;14708;50.872;5.306;2023-05-10T03:31:09;21.40;71.60
27188;DHT22;14708;50.872;5.306;2023-05-10T03:33:35;21.40;71.60
27188;DHT22;14708;50.872;5.306;2023-05-10T03:36:01;21.40;71.60
27188;DHT22;14708;50.872;5.306;2023-05-10T03:38:27;21.40;71.70
27188;DHT22;14708;50.872;5.306;2023-05-10T03:40:52;21.40;71.70
27188;DHT22;14708;50.872;5.306;2023-05-10T03:43:18;21.40;71.60
27188;DHT22;14708;50.872;5.306;2023-05-10T03:45:43;21.40;71.70
27188;DHT22;14708;50.872;5.306;2023-05-10T03:48:09;21.40;71.70
27188;DHT22;14708;50.872;5.306;2023-05-10T03:50:35;21.40;71.60
27188;DHT22;14708;50.872;5.306;2023-05-10T03:53:00;21.40;71.60
27188;DHT22;14708;50.872;5.306;2023-05-10T03:55:27;21.40;72.40
27188;DHT22;14708;50.872;5.306;2023-05-10T03:57:53;21.40;71.60
27188;DHT22;14708;50.872;5.306;2023-05-10T04:00:19;21.40;71.40
27188;DHT22;14708;50.872;5.306;2023-05-10T04:02:45;21.40;71.50
27188;DHT22;14708;50.872;5.306;2023-05-10T04:05:11;21.40;71.50
27188;DHT22;14708;50.872;5.306;2023-05-10T04:07:36;21.40;71.70
27188;DHT22;14708;50.872;5.306;2023-05-10T04:10:02;21.40;71.70
27188;DHT22;14708;50.872;5.306;2023-05-10T04:12:28;21.30;71.50
27188;DHT22;14708;50.872;5.306;2023-05-10T04:14:54;21.40;71.60
27188;DHT22;14708;50.872;5.306;2023-05-10T04:17:19;21.40;71.60
27188;DHT22;14708;50.872;5.306;2023-05-10T04:19:45;21.40;71.50
27188;DHT22;14708;50.872;5.306;2023-05-10T04:22:10;21.30;71.40
27188;DHT22;14708;50.872;5.306;2023-05-10T04:24:36;21.30;71.50
27188;DHT22;14708;50.872;5.306;2023-05-10T04:27:02;21.30;71.50
27188;DHT22;14708;50.872;5.306;2023-05-10T04:29:27;21.30;71.70
27188;DHT22;14708;50.872;5.306;2023-05-10T04:31:53;21.30;71.70
27188;DHT22;14708;50.872;5.306;2023-05-10T04:34:20;21.30;71.50
27188;DHT22;14708;50.872;5.306;2023-05-10T04:36:46;21.30;71.40
27188;DHT22;14708;50.872;5.306;2023-05-10T04:39:12;21.30;71.10
27188;DHT22;14708;50.872;5.306;2023-05-10T04:41:39;21.30;71.40
27188;DHT22;14708;50.872;5.306;2023-05-10T04:44:04;21.30;71.20
27188;DHT22;14708;50.872;5.306;2023-05-10T04:46:30;21.30;71.10
27188;DHT22;14708;50.872;5.306;2023-05-10T04:48:56;21.30;71.30
27188;DHT22;14708;50.872;5.306;2023-05-10T04:51:21;21.30;71.40
27188;DHT22;14708;50.872;5.306;2023-05-10T04:53:47;21.30;71.30
27188;DHT22;14708;50.872;5.306;2023-05-10T04:56:13;21.30;71.30
27188;DHT22;14708;50.872;5.306;2023-05-10T04:58:38;21.30;71.40
27188;DHT22;14708;50.872;5.306;2023-05-10T05:01:08;21.30;71.40
27188;DHT22;14708;50.872;5.306;2023-05-10T05:03:34;21.30;71.50
27188;DHT22;14708;50.872;5.306;2023-05-10T05:06:00;21.30;71.50
27188;DHT22;14708;50.872;5.306;2023-05-10T05:08:26;21.30;71.50
27188;DHT22;14708;50.872;5.306;2023-05-10T05:10:52;21.30;71.40
27188;DHT22;14708;50.872;5.306;2023-05-10T05:13:18;21.30;71.30
27188;DHT22;14708;50.872;5.306;2023-05-10T05:15:44;21.30;71.50
27188;DHT22;14708;50.872;5.306;2023-05-10T05:18:09;21.30;71.30
27188;DHT22;14708;50.872;5.306;2023-05-10T05:20:35;21.30;71.20
27188;DHT22;14708;50.872;5.306;2023-05-10T05:23:01;21.30;70.60
27188;DHT22;14708;50.872;5.306;2023-05-10T05:25:27;21.50;69.50
27188;DHT22;14708;50.872;5.306;2023-05-10T05:27:52;21.40;69.00
27188;DHT22;14708;50.872;5.306;2023-05-10T05:30:18;21.40;69.30
27188;DHT22;14708;50.872;5.306;2023-05-10T05:32:44;21.50;67.80
27188;DHT22;14708;50.872;5.306;2023-05-10T05:35:10;21.70;67.30
27188;DHT22;14708;50.872;5.306;2023-05-10T05:37:36;21.70;67.00
27188;DHT22;14708;50.872;5.306;2023-05-10T05:40:03;21.60;68.20
27188;DHT22;14708;50.872;5.306;2023-05-10T05:42:29;21.60;69.10
27188;DHT22;14708;50.872;5.306;2023-05-10T05:44:56;21.60;69.20
27188;DHT22;14708;50.872;5.306;2023-05-10T05:47:21;21.50;69.60
27188;DHT22;14708;50.872;5.306;2023-05-10T05:49:47;21.50;70.60
27188;DHT22;14708;50.872;5.306;2023-05-10T05:52:13;21.50;70.50
27188;DHT22;14708;50.872;5.306;2023-05-10T05:54:39;21.50;69.30
27188;DHT22;14708;50.872;5.306;2023-05-10T05:57:05;21.60;69.80
27188;DHT22;14708;50.872;5.306;2023-05-10T05:59:32;21.60;70.10
27188;DHT22;14708;50.872;5.306;2023-05-10T06:01:58;21.50;70.30
27188;DHT22;14708;50.872;5.306;2023-05-10T06:04:24;21.40;70.60
27188;DHT22;14708;50.872;5.306;2023-05-10T06:06:49;21.40;70.80
27188;DHT22;14708;50.872;5.306;2023-05-10T06:09:15;21.30;71.20
27188;DHT22;14708;50.872;5.306;2023-05-10T06:11:41;21.30;71.10
27188;DHT22;14708;50.872;5.306;2023-05-10T06:14:07;21.30;71.30
27188;DHT22;14708;50.872;5.306;2023-05-10T06:16:35;21.30;71.30
27188;DHT22;14708;50.872;5.306;2023-05-10T06:19:04;21.40;71.60
27188;DHT22;14708;50.872;5.306;2023-05-10T06:21:30;21.40;71.20
27188;DHT22;14708;50.872;5.306;2023-05-10T06:23:56;21.40;71.60
27188;DHT22;14708;50.872;5.306;2023-05-10T06:26:22;21.30;71.80
27188;DHT22;14708;50.872;5.306;2023-05-10T06:28:48;21.30;71.80
27188;DHT22;14708;50.872;5.306;2023-05-10T06:31:14;21.40;71.60
27188;DHT22;14708;50.872;5.306;2023-05-10T06:33:39;21.30;71.40
27188;DHT22;14708;50.872;5.306;2023-05-10T06:36:05;21.40;71.50
27188;DHT22;14708;50.872;5.306;2023-05-10T06:38:31;21.30;71.80
27188;DHT22;14708;50.872;5.306;2023-05-10T06:40:57;21.30;71.20
27188;DHT22;14708;50.872;5.306;2023-05-10T06:43:23;21.50;71.00
27188;DHT22;14708;50.872;5.306;2023-05-10T06:45:50;21.50;70.20
27188;DHT22;14708;50.872;5.306;2023-05-10T06:48:16;21.50;70.60
27188;DHT22;14708;50.872;5.306;2023-05-10T06:50:41;21.40;70.90
27188;DHT22;14708;50.872;5.306;2023-05-10T06:53:07;21.50;71.00
27188;DHT22;14708;50.872;5.306;2023-05-10T06:55:33;21.50;71.70
27188;DHT22;14708;50.872;5.306;2023-05-10T06:57:59;21.50;71.00
27188;DHT22;14708;50.872;5.306;2023-05-10T07:00:24;21.50;70.80
27188;DHT22;14708;50.872;5.306;2023-05-10T07:02:50;21.40;70.90
27188;DHT22;14708;50.872;5.306;2023-05-10T07:05:16;21.50;71.10
27188;DHT22;14708;50.872;5.306;2023-05-10T07:07:42;21.40;71.30
27188;DHT22;14708;50.872;5.306;2023-05-10T07:10:08;21.40;71.40
27188;DHT22;14708;50.872;5.306;2023-05-10T07:12:34;21.40;71.00
27188;DHT22;14708;50.872;5.306;2023-05-10T07:15:00;21.40;71.30
27188;DHT22;14708;50.872;5.306;2023-05-10T07:17:25;21.30;71.40
27188;DHT22;14708;50.872;5.306;2023-05-10T07:19:51;21.30;71.50
27188;DHT22;14708;50.872;5.306;2023-05-10T07:22:17;21.30;71.80
27188;DHT22;14708;50.872;5.306;2023-05-10T07:24:43;21.30;71.80
27188;DHT22;14708;50.872;5.306;2023-05-10T07:27:09;21.30;72.10
27188;DHT22;14708;50.872;5.306;2023-05-10T07:29:35;21.30;72.40
27188;DHT22;14708;50.872;5.306;2023-05-10T07:32:01;21.30;71.30
27188;DHT22;14708;50.872;5.306;2023-05-10T07:34:27;21.30;71.50
27188;DHT22;14708;50.872;5.306;2023-05-10T07:36:53;21.30;72.20
27188;DHT22;14708;50.872;5.306;2023-05-10T07:39:19;21.30;72.30
27188;DHT22;14708;50.872;5.306;2023-05-10T07:41:46;21.40;72.30
27188;DHT22;14708;50.872;5.306;2023-05-10T07:44:12;21.40;72.20
27188;DHT22;14708;50.872;5.306;2023-05-10T07:46:37;21.40;72.30
27188;DHT22;14708;50.872;5.306;2023-05-10T07:49:03;21.40;72.30
27188;DHT22;14708;50.872;5.306;2023-05-10T07:51:29;21.50;71.40
27188;DHT22;14708;50.872;5.306;2023-05-10T07:53:55;21.60;70.40
27188;DHT22;14708;50.872;5.306;2023-05-10T07:56:26;21.70;69.40
27188;DHT22;14708;50.872;5.306;2023-05-10T07:58:54;21.80;68.90
27188;DHT22;14708;50.872;5.306;2023-05-10T08:01:20;21.80;68.50
27188;DHT22;14708;50.872;5.306;2023-05-10T08:03:46;21.80;68.10
27188;DHT22;14708;50.872;5.306;2023-05-10T08:06:12;21.80;68.20
27188;DHT22;14708;50.872;5.306;2023-05-10T08:08:40;21.70;69.20
27188;DHT22;14708;50.872;5.306;2023-05-10T08:11:05;21.50;69.30
27188;DHT22;14708;50.872;5.306;2023-05-10T08:13:31;21.60;69.50
27188;DHT22;14708;50.872;5.306;2023-05-10T08:15:57;21.60;69.00
27188;DHT22;14708;50.872;5.306;2023-05-10T08:18:23;21.70;68.90
27188;DHT22;14708;50.872;5.306;2023-05-10T08:20:48;21.70;68.90
27188;DHT22;14708;50.872;5.306;2023-05-10T08:23:14;21.70;68.50
27188;DHT22;14708;50.872;5.306;2023-05-10T08:25:40;21.70;68.50
27188;DHT22;14708;50.872;5.306;2023-05-10T08:28:05;21.60;68.30
27188;DHT22;14708;50.872;5.306;2023-05-10T08:30:31;21.70;68.50
27188;DHT22;14708;50.872;5.306;2023-05-10T08:32:57;21.60;68.40
27188;DHT22;14708;50.872;5.306;2023-05-10T08:35:22;21.60;68.60
27188;DHT22;14708;50.872;5.306;2023-05-10T08:37:48;21.70;68.70
27188;DHT22;14708;50.872;5.306;2023-05-10T08:40:14;21.70;68.40
27188;DHT22;14708;50.872;5.306;2023-05-10T08:42:45;21.60;68.70
27188;DHT22;14708;50.872;5.306;2023-05-10T08:45:14;21.60;69.00
27188;DHT22;14708;50.872;5.306;2023-05-10T08:47:41;21.50;69.60
27188;DHT22;14708;50.872;5.306;2023-05-10T08:50:07;21.50;70.60
27188;DHT22;14708;50.872;5.306;2023-05-10T08:52:38;21.50;70.90
27188;DHT22;14708;50.872;5.306;2023-05-10T08:55:05;21.60;70.70
27188;DHT22;14708;50.872;5.306;2023-05-10T08:57:31;21.50;71.10
27188;DHT22;14708;50.872;5.306;2023-05-10T08:59:58;21.50;70.90
27188;DHT22;14708;50.872;5.306;2023-05-10T09:02:25;21.50;71.60
27188;DHT22;14708;50.872;5.306;2023-05-10T09:04:51;21.40;71.60
27188;DHT22;14708;50.872;5.306;2023-05-10T09:07:17;21.40;72.10
27188;DHT22;14708;50.872;5.306;2023-05-10T09:09:43;21.30;72.50
27188;DHT22;14708;50.872;5.306;2023-05-10T09:12:09;21.30;72.40
27188;DHT22;14708;50.872;5.306;2023-05-10T09:14:37;21.30;72.50
27188;DHT22;14708;50.872;5.306;2023-05-10T09:17:04;21.30;72.10
27188;DHT22;14708;50.872;5.306;2023-05-10T09:19:30;21.30;72.30
27188;DHT22;14708;50.872;5.306;2023-05-10T09:21:55;21.30;72.50
27188;DHT22;14708;50.872;5.306;2023-05-10T09:24:25;21.40;72.70
27188;DHT22;14708;50.872;5.306;2023-05-10T09:26:52;21.40;72.60
27188;DHT22;14708;50.872;5.306;2023-05-10T09:29:18;21.60;72.70
27188;DHT22;14708;50.872;5.306;2023-05-10T09:31:49;21.60;71.90
27188;DHT22;14708;50.872;5.306;2023-05-10T09:34:31;21.60;72.60
27188;DHT22;14708;50.872;5.306;2023-05-10T09:37:01;21.60;72.80
27188;DHT22;14708;50.872;5.306;2023-05-10T09:39:32;21.60;74.10
27188;DHT22;14708;50.872;5.306;2023-05-10T09:41:59;21.60;74.50
27188;DHT22;14708;50.872;5.306;2023-05-10T09:44:26;21.60;73.70
27188;DHT22;14708;50.872;5.306;2023-05-10T09:46:52;21.60;73.90
27188;DHT22;14708;50.872;5.306;2023-05-10T09:49:19;21.70;73.20
27188;DHT22;14708;50.872;5.306;2023-05-10T09:51:46;21.70;72.70
27188;DHT22;14708;50.872;5.306;2023-05-10T09:54:16;21.60;73.20
27188;DHT22;14708;50.872;5.306;2023-05-10T09:56:42;21.60;73.50
27188;DHT22;14708;50.872;5.306;2023-05-10T09:59:10;21.60;73.60
27188;DHT22;14708;50.872;5.306;2023-05-10T10:01:37;21.60;73.60
27188;DHT22;14708;50.872;5.306;2023-05-10T10:04:04;21.60;73.50
27188;DHT22;14708;50.872;5.306;2023-05-10T10:06:38;21.60;73.60
27188;DHT22;14708;50.872;5.306;2023-05-10T10:09:06;21.60;73.50
27188;DHT22;14708;50.872;5.306;2023-05-10T10:11:32;21.60;73.60
27188;DHT22;14708;50.872;5.306;2023-05-10T10:13:58;21.50;73.50
27188;DHT22;14708;50.872;5.306;2023-05-10T10:16:24;21.50;73.50
27188;DHT22;14708;50.872;5.306;2023-05-10T10:18:51;21.50;73.50
27188;DHT22;14708;50.872;5.306;2023-05-10T10:21:16;21.50;73.40
27188;DHT22;14708;50.872;5.306;2023-05-10T10:23:42;21.50;73.40
27188;DHT22;14708;50.872;5.306;2023-05-10T10:26:10;21.50;73.50
27188;DHT22;14708;50.872;5.306;2023-05-10T10:28:50;21.70;72.30
27188;DHT22;14708;50.872;5.306;2023-05-10T10:31:41;21.80;71.90
27188;DHT22;14708;50.872;5.306;2023-05-10T10:34:17;21.80;72.20
27188;DHT22;14708;50.872;5.306;2023-05-10T10:36:47;21.90;71.60
27188;DHT22;14708;50.872;5.306;2023-05-10T10:39:13;22.10;71.80
27188;DHT22;14708;50.872;5.306;2023-05-10T10:41:48;22.20;70.90
27188;DHT22;14708;50.872;5.306;2023-05-10T10:47:10;22.50;67.30
27188;DHT22;14708;50.872;5.306;2023-05-10T10:52:54;22.60;68.30
27188;DHT22;14708;50.872;5.306;2023-05-10T10:55:47;22.70;68.60
27188;DHT22;14708;50.872;5.306;2023-05-10T10:58:33;22.70;69.10
27188;DHT22;14708;50.872;5.306;2023-05-10T11:03:34;22.70;69.70
27188;DHT22;14708;50.872;5.306;2023-05-10T11:05:59;22.60;70.00
27188;DHT22;14708;50.872;5.306;2023-05-10T11:08:42;22.60;70.50
27188;DHT22;14708;50.872;5.306;2023-05-10T11:11:14;22.60;70.70
27188;DHT22;14708;50.872;5.306;2023-05-10T11:16:22;22.70;71.10
27188;DHT22;14708;50.872;5.306;2023-05-10T11:19:05;22.70;71.50
27188;DHT22;14708;50.872;5.306;2023-05-10T11:22:12;22.70;71.60
27188;DHT22;14708;50.872;5.306;2023-05-10T11:24:56;22.70;70.70
27188;DHT22;14708;50.872;5.306;2023-05-10T11:27:23;22.60;71.00
27188;DHT22;14708;50.872;5.306;2023-05-10T11:29:53;22.60;71.70
27188;DHT22;14708;50.872;5.306;2023-05-10T11:32:22;22.70;71.70
27188;DHT22;14708;50.872;5.306;2023-05-10T11:34:50;22.80;71.80
27188;DHT22;14708;50.872;5.306;2023-05-10T11:37:19;22.80;71.60
27188;DHT22;14708;50.872;5.306;2023-05-10T11:39:46;22.80;71.80
27188;DHT22;14708;50.872;5.306;2023-05-10T11:42:44;22.70;71.60
27188;DHT22;14708;50.872;5.306;2023-05-10T11:45:34;22.80;68.10
27188;DHT22;14708;50.872;5.306;2023-05-10T11:48:13;22.60;70.00
27188;DHT22;14708;50.872;5.306;2023-05-10T11:50:38;22.60;70.20
27188;DHT22;14708;50.872;5.306;2023-05-10T11:53:10;22.40;67.90
27188;DHT22;14708;50.872;5.306;2023-05-10T11:56:02;22.50;69.40
27188;DHT22;14708;50.872;5.306;2023-05-10T11:59:18;22.50;69.70
27188;DHT22;14708;50.872;5.306;2023-05-10T12:02:45;22.40;71.60
27188;DHT22;14708;50.872;5.306;2023-05-10T12:05:11;22.30;72.20
27188;DHT22;14708;50.872;5.306;2023-05-10T12:07:49;22.40;72.00
27188;DHT22;14708;50.872;5.306;2023-05-10T12:11:16;22.40;72.00
27188;DHT22;14708;50.872;5.306;2023-05-10T12:14:10;22.40;71.90
27188;DHT22;14708;50.872;5.306;2023-05-10T12:16:52;22.40;72.40
27188;DHT22;14708;50.872;5.306;2023-05-10T12:19:53;22.40;72.10
27188;DHT22;14708;50.872;5.306;2023-05-10T12:23:16;22.40;72.20
27188;DHT22;14708;50.872;5.306;2023-05-10T12:26:42;22.50;72.70
27188;DHT22;14708;50.872;5.306;2023-05-10T12:29:36;22.50;72.50
27188;DHT22;14708;50.872;5.306;2023-05-10T12:35:59;22.40;72.80
27188;DHT22;14708;50.872;5.306;2023-05-10T12:40:56;22.40;72.90
27188;DHT22;14708;50.872;5.306;2023-05-10T12:43:22;22.40;73.00
27188;DHT22;14708;50.872;5.306;2023-05-10T12:45:48;22.30;73.20
27188;DHT22;14708;50.872;5.306;2023-05-10T12:48:15;22.40;73.00
27188;DHT22;14708;50.872;5.306;2023-05-10T12:50:40;22.50;73.00
27188;DHT22;14708;50.872;5.306;2023-05-10T12:53:25;22.50;72.60
27188;DHT22;14708;50.872;5.306;2023-05-10T12:55:51;22.50;72.60
27188;DHT22;14708;50.872;5.306;2023-05-10T12:58:17;22.50;72.30
27188;DHT22;14708;50.872;5.306;2023-05-10T13:00:44;22.40;72.60
27188;DHT22;14708;50.872;5.306;2023-05-10T13:03:10;22.40;72.90
27188;DHT22;14708;50.872;5.306;2023-05-10T13:05:36;22.40;72.90
27188;DHT22;14708;50.872;5.306;2023-05-10T13:08:02;22.30;72.50
27188;DHT22;14708;50.872;5.306;2023-05-10T13:10:30;22.30;72.00
27188;DHT22;14708;50.872;5.306;2023-05-10T13:12:56;22.30;72.40
27188;DHT22;14708;50.872;5.306;2023-05-10T13:15:23;22.20;72.20
27188;DHT22;14708;50.872;5.306;2023-05-10T13:17:48;22.20;70.90
27188;DHT22;14708;50.872;5.306;2023-05-10T13:20:14;22.10;71.20
27188;DHT22;14708;50.872;5.306;2023-05-10T13:23:06;22.20;70.40
27188;DHT22;14708;50.872;5.306;2023-05-10T13:25:59;22.20;70.80
27188;DHT22;14708;50.872;5.306;2023-05-10T13:29:04;22.30;70.30
27188;DHT22;14708;50.872;5.306;2023-05-10T13:31:30;22.30;69.60
27188;DHT22;14708;50.872;5.306;2023-05-10T13:37:41;22.30;70.00
27188;DHT22;14708;50.872;5.306;2023-05-10T13:40:52;22.40;70.90
27188;DHT22;14708;50.872;5.306;2023-05-10T13:43:21;22.30;71.20
27188;DHT22;14708;50.872;5.306;2023-05-10T13:46:03;22.40;71.90
27188;DHT22;14708;50.872;5.306;2023-05-10T13:48:30;22.40;72.10
27188;DHT22;14708;50.872;5.306;2023-05-10T13:50:56;22.40;72.50
27188;DHT22;14708;50.872;5.306;2023-05-10T13:53:23;22.40;72.60
27188;DHT22;14708;50.872;5.306;2023-05-10T13:55:49;22.40;72.70
27188;DHT22;14708;50.872;5.306;2023-05-10T13:58:15;22.30;73.20
27188;DHT22;14708;50.872;5.306;2023-05-10T14:00:40;22.30;73.50
27188;DHT22;14708;50.872;5.306;2023-05-10T14:03:06;22.30;73.50
27188;DHT22;14708;50.872;5.306;2023-05-10T14:05:35;22.30;74.40
27188;DHT22;14708;50.872;5.306;2023-05-10T14:08:01;22.30;73.80
27188;DHT22;14708;50.872;5.306;2023-05-10T14:10:29;22.20;74.00
27188;DHT22;14708;50.872;5.306;2023-05-10T14:12:56;22.20;73.90
27188;DHT22;14708;50.872;5.306;2023-05-10T14:15:23;22.30;74.10
27188;DHT22;14708;50.872;5.306;2023-05-10T14:17:49;22.20;72.30
27188;DHT22;14708;50.872;5.306;2023-05-10T14:20:15;22.20;67.60
27188;DHT22;14708;50.872;5.306;2023-05-10T14:22:50;22.30;67.10
27188;DHT22;14708;50.872;5.306;2023-05-10T14:25:17;22.40;71.50
27188;DHT22;14708;50.872;5.306;2023-05-10T14:27:43;22.50;72.70
27188;DHT22;14708;50.872;5.306;2023-05-10T14:30:14;22.40;72.50
27188;DHT22;14708;50.872;5.306;2023-05-10T14:32:50;22.40;72.40
27188;DHT22;14708;50.872;5.306;2023-05-10T14:35:24;22.50;72.70
27188;DHT22;14708;50.872;5.306;2023-05-10T14:37:58;22.40;72.90
27188;DHT22;14708;50.872;5.306;2023-05-10T14:40:52;22.40;72.90
27188;DHT22;14708;50.872;5.306;2023-05-10T14:43:43;22.40;73.00
27188;DHT22;14708;50.872;5.306;2023-05-10T14:47:12;22.40;73.30
27188;DHT22;14708;50.872;5.306;2023-05-10T14:49:56;22.40;73.40
27188;DHT22;14708;50.872;5.306;2023-05-10T14:52:32;22.40;73.70
27188;DHT22;14708;50.872;5.306;2023-05-10T14:54:59;22.60;73.70
27188;DHT22;14708;50.872;5.306;2023-05-10T14:57:26;22.50;73.50
27188;DHT22;14708;50.872;5.306;2023-05-10T14:59:57;22.50;73.10
27188;DHT22;14708;50.872;5.306;2023-05-10T15:02:35;22.50;73.60
27188;DHT22;14708;50.872;5.306;2023-05-10T15:05:08;22.50;71.60
27188;DHT22;14708;50.872;5.306;2023-05-10T15:07:55;22.50;71.70
27188;DHT22;14708;50.872;5.306;2023-05-10T15:10:52;22.60;72.10
27188;DHT22;14708;50.872;5.306;2023-05-10T15:14:03;22.60;72.70
27188;DHT22;14708;50.872;5.306;2023-05-10T15:17:29;22.50;73.10
27188;DHT22;14708;50.872;5.306;2023-05-10T15:23:18;22.60;73.80
27188;DHT22;14708;50.872;5.306;2023-05-10T15:25:43;22.60;73.60
27188;DHT22;14708;50.872;5.306;2023-05-10T15:28:09;22.60;73.70
27188;DHT22;14708;50.872;5.306;2023-05-10T15:30:35;22.70;73.50
27188;DHT22;14708;50.872;5.306;2023-05-10T15:33:01;22.80;73.00
27188;DHT22;14708;50.872;5.306;2023-05-10T15:35:26;22.80;72.90
27188;DHT22;14708;50.872;5.306;2023-05-10T15:37:57;22.80;73.60
27188;DHT22;14708;50.872;5.306;2023-05-10T15:40:28;22.80;72.80
27188;DHT22;14708;50.872;5.306;2023-05-10T15:42:56;22.80;72.70
27188;DHT22;14708;50.872;5.306;2023-05-10T15:45:22;22.80;73.20
27188;DHT22;14708;50.872;5.306;2023-05-10T15:47:47;22.80;71.50
27188;DHT22;14708;50.872;5.306;2023-05-10T15:50:14;22.80;72.40
27188;DHT22;14708;50.872;5.306;2023-05-10T15:52:40;22.90;70.00
27188;DHT22;14708;50.872;5.306;2023-05-10T15:55:07;23.00;71.90
27188;DHT22;14708;50.872;5.306;2023-05-10T15:57:38;22.90;71.80
27188;DHT22;14708;50.872;5.306;2023-05-10T16:00:06;23.00;71.40
27188;DHT22;14708;50.872;5.306;2023-05-10T16:02:31;23.00;71.20
27188;DHT22;14708;50.872;5.306;2023-05-10T16:04:57;23.00;71.00
27188;DHT22;14708;50.872;5.306;2023-05-10T16:07:23;23.00;71.80
27188;DHT22;14708;50.872;5.306;2023-05-10T16:09:54;23.00;71.90
27188;DHT22;14708;50.872;5.306;2023-05-10T16:12:20;22.90;71.90
27188;DHT22;14708;50.872;5.306;2023-05-10T16:14:46;22.90;71.70
27188;DHT22;14708;50.872;5.306;2023-05-10T16:17:12;22.90;72.00
27188;DHT22;14708;50.872;5.306;2023-05-10T16:19:37;22.90;72.10
27188;DHT22;14708;50.872;5.306;2023-05-10T16:22:04;22.80;72.40
27188;DHT22;14708;50.872;5.306;2023-05-10T16:24:32;22.80;72.60
27188;DHT22;14708;50.872;5.306;2023-05-10T16:26:58;22.70;73.00
27188;DHT22;14708;50.872;5.306;2023-05-10T16:29:26;22.60;73.20